Murchison, Texas
Current Conditions -  °F | °C
As of 2:55 PM on Tuesday 27 Jan 2015 (Local Time) from KF44 Reporting Station
Clear Clear  
Wind Chill: 77°   Ceiling: Unl
Heat Index: 77°   Visibility: 10mi
Dew Point: 37°   Wind: 0mph
Humidity: 24%   Direction: NA
Pressure: 30.1"   Gusts: NA
Location:  32.28°N, 95.75°W
Report Text: KF44 272055Z AUTO 00000KT 10SM CLR 25/03 A3010 RMK AO2
Loading
Personal Weather Stations






























Interactive Weather Map New forecast layout! Learn more

10-Day Weather Forecast

Advertisements
Track Severe Weather on mobile